x

Buoy B01 - Western Maine Shelf (44030) Wave Buoy

4:04 - Sun 23rd Apr 2017 All times are EDT. -4 hours from GMT.

  • Sig Wave height 5.9ft
  • Peak Period 8s
  • Wind
    9mph, 11mph gusts
  • Sea Temp 43°f
  • Air Temp 42°f
  • Sea Pressure 1015mb
  • Buoy B01 - Western Maine Shelf
  • Buoy B01 - Western Maine Shelf

More Historic Weather Station data

Upgrade to MSW Pro to gain access to the past 30 days of data for over 8000 Wavebouys and Weather Stations around the globe.

Join Pro

Comparision Forecast

View Surf forecast
   
dim. 04/23 4:04 6ft 8s 9 11 mph 1015mb 43f 42f
3:04 6ft 11s 11 16 mph 1015mb 43f 41f
2:04 7ft 8s 7 11 mph 1015.1mb 43f 41f
1:04 7ft 8s 7 9 mph 1014.9mb 43f 42f
12:04 7ft 8s 9 11 mph 1014.7mb 44f 42f
sam. 04/22 11:04 7.5ft 8s 11 13 mph 1014.6mb 44f 42f
10:04 6ft 8s 11 13 mph 1014.5mb 44f 42f
9:04 6ft 8s 11
mph
1014.4mb 44f 42f
8:04 6ft 8s 11 13 mph 1014.2mb 44f 41f
7:04 6ft 8s 13 16 mph 1014.2mb 44f 41f
6:04 7ft 8s 16 18 mph 1013.9mb 44f 41f
5:04 7.5ft 8s 16 18 mph 1013.8mb 44f 41f
4:04 7ft 8s 18 20 mph 1013.4mb 44f 41f
3:04 6.5ft 11s 18 22 mph 1013.9mb 44f 40f
2:04 6ft 6s 16 20 mph 1014.1mb 44f 41f
1:04 6.5ft 6s 13 16 mph 1014.2mb 44f 41f
12:04 5.5ft 6s 13 16 mph 1014.2mb 44f 41f
11:04 6ft 6s 13 16 mph 1014.4mb 44f 41f
10:04 6.5ft 11s 16 18 mph 1014.6mb 44f 41f
9:04 7ft 6s 13 18 mph 1015mb 44f 42f
8:04 6ft 8s 18 20 mph 1014.7mb 44f 41f
7:04 6.5ft 6s 18 20 mph 1014.7mb 44f 42f
6:04 6ft 6s 20 22 mph 1014.7mb 44f 41f
5:04 6ft 6s 20 25 mph 1014.8mb 44f 41f
4:04 6ft 6s 18 20 mph 1015.6mb 44f 41f
3:04 7ft 8s 18 20 mph 1015.8mb 44f 41f
2:04 6ft 8s 16 18 mph 1016.1mb 44f 41f
1:04 6.5ft 6s 16
mph
1016.7mb 44f 41f
12:04 6ft 6s 13 16 mph 1016.9mb 44f 42f
ven. 04/21 11:04 6ft 6s 13 16 mph 1017.1mb 44f 42f
10:04 6ft 6s 11 13 mph 1017.8mb 44f 42f
9:04 6.5ft 6s 18 20 mph 1017.1mb 44f 41f
8:04 6.5ft 6s 20 22 mph 1016.3mb 43f 41f
7:04 6ft 6s 18 22 mph 1016.9mb 43f 41f
6:04 7ft 6s 18 22 mph 1017.3mb 43f 41f
5:04 6.5ft 6s 20 22 mph 1017.2mb 43f 42f
4:04 6ft 6s 22 25 mph 1017.4mb 43f 41f
3:04 7ft 6s 18 20 mph 1018.7mb 43f 41f
2:04 7ft 6s 18 20 mph 1019.3mb 43f 41f
1:04 5.5ft 5s 18 20 mph 1019.6mb 44f 40f
12:04 5ft 5s 18 20 mph 1019.9mb 44f 41f
11:04 5.5ft 5s 20 25 mph 1020.2mb 44f 41f
10:04 5.5ft 5s 20 22 mph 1020.5mb 44f 42f
9:04 6ft 11s 20 25 mph 1019.9mb 44f 42f
8:04 5ft 5s 18 22 mph 1020.1mb 44f 42f
7:04 5ft 11s 18 20 mph 1020.8mb 44f 43f
6:04 4.5ft 11s 18 20 mph 1020.6mb 44f 43f
5:04 4ft 11s 18 20 mph 1020mb 44f 43f
4:04 5ft 8s 18 20 mph 1020.1mb 44f 43f
3:04 4ft 8s 13 16 mph 1020.7mb 44f 43f
2:04 4.5ft 11s 11 13 mph 1021.2mb 44f 43f
1:04 4.5ft 11s 11 13 mph 1021.7mb 44f 43f
12:04 5ft 11s 13 16 mph 1021.5mb 44f 44f
jeu. 04/20 11:04 4ft 11s 13 16 mph 1021.2mb 44f 44f
10:04 3.5ft 11s 13 16 mph 1021.7mb 44f 44f
9:04 4ft 6s 16 18 mph 1021.2mb 44f 44f
8:04  -   -  13 16 mph 1020.7mb 44f 45f
7:04 3.5ft 8s 11 13 mph 1020.7mb 44f 45f
6:04 4ft 11s 9
mph
1020.6mb 44f 45f
5:04 3.5ft 8s 9 11 mph 1020.5mb 44f 45f
4:04 3.5ft 8s 16 18 mph 1019.8mb 44f 45f
3:04 3.5ft 5s 11 13 mph 1020.2mb 45f 46f
2:04 3.5ft 6s 9 11 mph 1020.5mb 45f 46f
1:04 3.5ft 6s 7 9 mph 1020.2mb 45f 46f
12:04 4ft 6s 2 4 mph 1020.7mb 44f 47f
11:04 4.5ft 6s 2
mph
1020.8mb 44f 45f
10:04 3.5ft 6s 4
mph
1020.7mb 44f 44f
9:04 4.5ft 6s 4 7 mph 1020.4mb 44f 44f
8:04 4.5ft 6s 9
mph
1020.5mb 43f 44f
7:04 4.5ft 6s 9 11 mph 1020.4mb 43f 43f
6:04 4.5ft 6s 11
mph
1020.4mb 43f 43f
5:04 5ft 6s 13 16 mph 1020.2mb 43f 43f
4:04 5ft 6s 16 18 mph 1020.9mb 43f 43f
3:04 5.5ft 6s 16 18 mph 1021.3mb 43f 43f
2:04 6ft 6s 18 20 mph 1022.1mb 43f 43f
1:04 6ft 6s 20 25 mph 1022.9mb 43f 42f
12:04 6ft 6s 22 27 mph 1023.5mb 43f 42f
mer. 04/19 11:04 8ft 6s 22 27 mph 1024.3mb 43f 42f
10:04 7ft 6s 25 29 mph 1024.7mb 43f 42f
9:04 7.5ft 6s 25 29 mph 1025.8mb 43f 43f
8:04 7.5ft 6s 27 31 mph 1025.6mb 44f 43f
7:04 8.5ft 6s 29 34 mph 1025.8mb 44f 42f